sensor_id;sensor_type;location;lat;lon;timestamp;P1;durP1;ratioP1;P2;durP2;ratioP2
40717;SDS011;26405;51.850;-2.246;2023-01-29T00:01:32;16.90;;;7.28;;
40717;SDS011;26405;51.850;-2.246;2023-01-29T00:03:57;19.38;;;7.28;;
40717;SDS011;26405;51.850;-2.246;2023-01-29T00:06:22;18.80;;;7.15;;
40717;SDS011;26405;51.850;-2.246;2023-01-29T00:08:48;20.38;;;8.30;;
40717;SDS011;26405;51.850;-2.246;2023-01-29T00:11:13;23.23;;;11.82;;
40717;SDS011;26405;51.850;-2.246;2023-01-29T00:13:38;20.67;;;9.18;;
40717;SDS011;26405;51.850;-2.246;2023-01-29T00:16:03;18.88;;;8.75;;
40717;SDS011;26405;51.850;-2.246;2023-01-29T00:18:29;20.05;;;8.70;;
40717;SDS011;26405;51.850;-2.246;2023-01-29T00:20:55;18.65;;;8.48;;
40717;SDS011;26405;51.850;-2.246;2023-01-29T00:23:20;18.00;;;8.07;;
40717;SDS011;26405;51.850;-2.246;2023-01-29T00:25:46;16.73;;;7.10;;
40717;SDS011;26405;51.850;-2.246;2023-01-29T00:28:11;17.88;;;7.30;;
40717;SDS011;26405;51.850;-2.246;2023-01-29T00:30:37;17.23;;;7.63;;
40717;SDS011;26405;51.850;-2.246;2023-01-29T00:33:03;16.25;;;7.32;;
40717;SDS011;26405;51.850;-2.246;2023-01-29T00:35:28;16.27;;;6.75;;
40717;SDS011;26405;51.850;-2.246;2023-01-29T00:37:54;15.77;;;6.68;;
40717;SDS011;26405;51.850;-2.246;2023-01-29T00:40:19;15.75;;;6.70;;
40717;SDS011;26405;51.850;-2.246;2023-01-29T00:42:45;15.20;;;6.75;;
40717;SDS011;26405;51.850;-2.246;2023-01-29T00:45:29;15.70;;;6.72;;
40717;SDS011;26405;51.850;-2.246;2023-01-29T00:47:54;17.52;;;6.63;;
40717;SDS011;26405;51.850;-2.246;2023-01-29T00:50:19;15.70;;;6.78;;
40717;SDS011;26405;51.850;-2.246;2023-01-29T00:52:44;14.90;;;6.40;;
40717;SDS011;26405;51.850;-2.246;2023-01-29T00:55:10;18.63;;;7.32;;
40717;SDS011;26405;51.850;-2.246;2023-01-29T00:57:36;17.77;;;7.47;;
40717;SDS011;26405;51.850;-2.246;2023-01-29T01:00:02;16.98;;;7.20;;
40717;SDS011;26405;51.850;-2.246;2023-01-29T01:02:27;15.88;;;6.47;;
40717;SDS011;26405;51.850;-2.246;2023-01-29T01:05:12;16.05;;;7.00;;
40717;SDS011;26405;51.850;-2.246;2023-01-29T01:07:42;15.65;;;6.90;;
40717;SDS011;26405;51.850;-2.246;2023-01-29T01:10:09;17.08;;;7.30;;
40717;SDS011;26405;51.850;-2.246;2023-01-29T01:12:49;17.25;;;7.10;;
40717;SDS011;26405;51.850;-2.246;2023-01-29T01:15:15;13.98;;;6.85;;
40717;SDS011;26405;51.850;-2.246;2023-01-29T01:17:40;17.88;;;7.50;;
40717;SDS011;26405;51.850;-2.246;2023-01-29T01:20:05;15.63;;;6.97;;
40717;SDS011;26405;51.850;-2.246;2023-01-29T01:22:31;17.15;;;7.40;;
40717;SDS011;26405;51.850;-2.246;2023-01-29T01:24:56;16.33;;;7.13;;
40717;SDS011;26405;51.850;-2.246;2023-01-29T01:27:22;14.57;;;6.53;;
40717;SDS011;26405;51.850;-2.246;2023-01-29T01:29:47;17.35;;;6.97;;
40717;SDS011;26405;51.850;-2.246;2023-01-29T01:32:12;18.13;;;7.13;;
40717;SDS011;26405;51.850;-2.246;2023-01-29T01:34:38;16.60;;;7.45;;
40717;SDS011;26405;51.850;-2.246;2023-01-29T01:37:03;17.58;;;7.50;;
40717;SDS011;26405;51.850;-2.246;2023-01-29T01:39:28;17.63;;;7.80;;
40717;SDS011;26405;51.850;-2.246;2023-01-29T01:41:54;18.65;;;7.60;;
40717;SDS011;26405;51.850;-2.246;2023-01-29T01:47:03;18.23;;;8.30;;
40717;SDS011;26405;51.850;-2.246;2023-01-29T01:49:29;15.75;;;7.57;;
40717;SDS011;26405;51.850;-2.246;2023-01-29T01:51:54;19.35;;;7.93;;
40717;SDS011;26405;51.850;-2.246;2023-01-29T01:54:23;16.83;;;7.97;;
40717;SDS011;26405;51.850;-2.246;2023-01-29T01:56:50;19.40;;;8.43;;
40717;SDS011;26405;51.850;-2.246;2023-01-29T01:59:19;20.67;;;8.52;;
40717;SDS011;26405;51.850;-2.246;2023-01-29T02:01:46;19.17;;;8.70;;
40717;SDS011;26405;51.850;-2.246;2023-01-29T02:04:24;19.77;;;8.98;;
40717;SDS011;26405;51.850;-2.246;2023-01-29T02:07:09;21.20;;;9.55;;
40717;SDS011;26405;51.850;-2.246;2023-01-29T02:10:08;21.50;;;9.07;;
40717;SDS011;26405;51.850;-2.246;2023-01-29T02:12:35;21.27;;;9.38;;
40717;SDS011;26405;51.850;-2.246;2023-01-29T02:15:00;19.60;;;9.13;;
40717;SDS011;26405;51.850;-2.246;2023-01-29T02:17:26;21.15;;;9.93;;
40717;SDS011;26405;51.850;-2.246;2023-01-29T02:22:28;19.42;;;9.20;;
40717;SDS011;26405;51.850;-2.246;2023-01-29T02:25:01;20.98;;;10.07;;
40717;SDS011;26405;51.850;-2.246;2023-01-29T02:40:44;24.05;;;11.18;;
40717;SDS011;26405;51.850;-2.246;2023-01-29T02:49:07;21.90;;;11.07;;
40717;SDS011;26405;51.850;-2.246;2023-01-29T02:51:30;23.23;;;11.70;;
40717;SDS011;26405;51.850;-2.246;2023-01-29T02:54:00;22.38;;;11.40;;
40717;SDS011;26405;51.850;-2.246;2023-01-29T02:56:38;21.45;;;10.48;;
40717;SDS011;26405;51.850;-2.246;2023-01-29T03:01:34;21.88;;;9.82;;
40717;SDS011;26405;51.850;-2.246;2023-01-29T03:04:02;21.90;;;10.18;;
40717;SDS011;26405;51.850;-2.246;2023-01-29T03:06:51;20.33;;;10.02;;
40717;SDS011;26405;51.850;-2.246;2023-01-29T03:09:19;20.25;;;9.38;;
40717;SDS011;26405;51.850;-2.246;2023-01-29T03:11:53;21.92;;;10.20;;
40717;SDS011;26405;51.850;-2.246;2023-01-29T03:14:33;21.10;;;9.85;;
40717;SDS011;26405;51.850;-2.246;2023-01-29T03:17:18;19.02;;;8.50;;
40717;SDS011;26405;51.850;-2.246;2023-01-29T03:19:44;20.73;;;9.60;;
40717;SDS011;26405;51.850;-2.246;2023-01-29T03:22:10;20.13;;;9.02;;
40717;SDS011;26405;51.850;-2.246;2023-01-29T03:30:08;17.88;;;8.00;;
40717;SDS011;26405;51.850;-2.246;2023-01-29T03:32:54;20.25;;;8.13;;
40717;SDS011;26405;51.850;-2.246;2023-01-29T03:35:23;18.77;;;8.48;;
40717;SDS011;26405;51.850;-2.246;2023-01-29T03:38:01;16.95;;;7.78;;
40717;SDS011;26405;51.850;-2.246;2023-01-29T03:58:20;14.48;;;6.68;;
40717;SDS011;26405;51.850;-2.246;2023-01-29T04:00:52;14.27;;;6.63;;
40717;SDS011;26405;51.850;-2.246;2023-01-29T04:03:20;19.08;;;8.15;;
40717;SDS011;26405;51.850;-2.246;2023-01-29T04:05:58;16.33;;;7.13;;
40717;SDS011;26405;51.850;-2.246;2023-01-29T04:08:34;18.52;;;8.00;;
40717;SDS011;26405;51.850;-2.246;2023-01-29T04:11:03;16.83;;;7.40;;
40717;SDS011;26405;51.850;-2.246;2023-01-29T04:13:31;16.25;;;7.47;;
40717;SDS011;26405;51.850;-2.246;2023-01-29T04:15:58;18.08;;;7.90;;
40717;SDS011;26405;51.850;-2.246;2023-01-29T04:18:24;19.20;;;8.48;;
40717;SDS011;26405;51.850;-2.246;2023-01-29T04:20:50;19.15;;;8.52;;
40717;SDS011;26405;51.850;-2.246;2023-01-29T04:23:19;19.92;;;8.30;;
40717;SDS011;26405;51.850;-2.246;2023-01-29T04:25:45;17.75;;;7.85;;
40717;SDS011;26405;51.850;-2.246;2023-01-29T04:28:17;20.13;;;8.73;;
40717;SDS011;26405;51.850;-2.246;2023-01-29T04:36:09;25.05;;;10.40;;
40717;SDS011;26405;51.850;-2.246;2023-01-29T04:41:34;22.38;;;10.90;;
40717;SDS011;26405;51.850;-2.246;2023-01-29T04:46:32;23.30;;;10.47;;
40717;SDS011;26405;51.850;-2.246;2023-01-29T04:54:06;23.55;;;10.98;;
40717;SDS011;26405;51.850;-2.246;2023-01-29T04:56:38;23.10;;;11.02;;
40717;SDS011;26405;51.850;-2.246;2023-01-29T04:59:06;22.77;;;11.40;;
40717;SDS011;26405;51.850;-2.246;2023-01-29T05:01:32;23.33;;;11.68;;
40717;SDS011;26405;51.850;-2.246;2023-01-29T05:03:58;23.55;;;10.75;;
40717;SDS011;26405;51.850;-2.246;2023-01-29T05:08:50;23.27;;;11.38;;
40717;SDS011;26405;51.850;-2.246;2023-01-29T05:11:16;21.67;;;9.95;;
40717;SDS011;26405;51.850;-2.246;2023-01-29T05:13:42;22.58;;;10.40;;
40717;SDS011;26405;51.850;-2.246;2023-01-29T05:16:18;25.23;;;11.82;;
40717;SDS011;26405;51.850;-2.246;2023-01-29T05:18:44;22.15;;;10.40;;
40717;SDS011;26405;51.850;-2.246;2023-01-29T05:21:10;23.73;;;10.98;;
40717;SDS011;26405;51.850;-2.246;2023-01-29T05:23:35;25.27;;;12.32;;
40717;SDS011;26405;51.850;-2.246;2023-01-29T05:26:01;25.63;;;12.07;;
40717;SDS011;26405;51.850;-2.246;2023-01-29T05:28:26;24.35;;;12.02;;
40717;SDS011;26405;51.850;-2.246;2023-01-29T05:30:52;22.83;;;10.75;;
40717;SDS011;26405;51.850;-2.246;2023-01-29T05:33:19;25.00;;;11.20;;
40717;SDS011;26405;51.850;-2.246;2023-01-29T05:35:44;26.03;;;11.90;;
40717;SDS011;26405;51.850;-2.246;2023-01-29T05:38:10;24.52;;;12.30;;
40717;SDS011;26405;51.850;-2.246;2023-01-29T05:40:35;24.42;;;12.38;;
40717;SDS011;26405;51.850;-2.246;2023-01-29T05:43:01;27.23;;;12.02;;
40717;SDS011;26405;51.850;-2.246;2023-01-29T05:45:26;27.15;;;11.57;;
40717;SDS011;26405;51.850;-2.246;2023-01-29T05:47:55;30.48;;;12.98;;
40717;SDS011;26405;51.850;-2.246;2023-01-29T05:50:22;29.23;;;12.00;;
40717;SDS011;26405;51.850;-2.246;2023-01-29T05:52:47;27.98;;;11.95;;
40717;SDS011;26405;51.850;-2.246;2023-01-29T05:55:12;26.73;;;11.77;;
40717;SDS011;26405;51.850;-2.246;2023-01-29T05:57:38;29.65;;;12.50;;
40717;SDS011;26405;51.850;-2.246;2023-01-29T06:00:03;26.67;;;12.13;;
40717;SDS011;26405;51.850;-2.246;2023-01-29T06:02:29;26.52;;;11.90;;
40717;SDS011;26405;51.850;-2.246;2023-01-29T06:04:55;27.50;;;11.18;;
40717;SDS011;26405;51.850;-2.246;2023-01-29T06:07:20;26.83;;;12.05;;
40717;SDS011;26405;51.850;-2.246;2023-01-29T06:09:46;27.38;;;13.02;;
40717;SDS011;26405;51.850;-2.246;2023-01-29T06:12:11;32.80;;;14.73;;
40717;SDS011;26405;51.850;-2.246;2023-01-29T06:14:36;29.50;;;14.13;;
40717;SDS011;26405;51.850;-2.246;2023-01-29T06:17:02;27.60;;;12.98;;
40717;SDS011;26405;51.850;-2.246;2023-01-29T06:19:27;30.77;;;13.05;;
40717;SDS011;26405;51.850;-2.246;2023-01-29T06:21:52;26.75;;;12.13;;
40717;SDS011;26405;51.850;-2.246;2023-01-29T06:24:17;29.13;;;12.93;;
40717;SDS011;26405;51.850;-2.246;2023-01-29T06:26:43;28.63;;;14.13;;
40717;SDS011;26405;51.850;-2.246;2023-01-29T06:29:08;26.60;;;12.25;;
40717;SDS011;26405;51.850;-2.246;2023-01-29T06:31:34;29.40;;;13.57;;
40717;SDS011;26405;51.850;-2.246;2023-01-29T06:33:59;28.10;;;13.35;;
40717;SDS011;26405;51.850;-2.246;2023-01-29T06:36:24;26.77;;;12.82;;
40717;SDS011;26405;51.850;-2.246;2023-01-29T06:38:49;30.02;;;14.00;;
40717;SDS011;26405;51.850;-2.246;2023-01-29T06:41:15;28.40;;;13.75;;
40717;SDS011;26405;51.850;-2.246;2023-01-29T06:43:45;28.50;;;13.38;;
40717;SDS011;26405;51.850;-2.246;2023-01-29T06:46:10;28.92;;;13.77;;
40717;SDS011;26405;51.850;-2.246;2023-01-29T06:48:35;26.33;;;13.25;;
40717;SDS011;26405;51.850;-2.246;2023-01-29T06:51:04;27.42;;;13.75;;
40717;SDS011;26405;51.850;-2.246;2023-01-29T06:53:31;26.48;;;12.38;;
40717;SDS011;26405;51.850;-2.246;2023-01-29T06:55:57;28.70;;;13.25;;
40717;SDS011;26405;51.850;-2.246;2023-01-29T06:58:22;25.83;;;12.15;;
40717;SDS011;26405;51.850;-2.246;2023-01-29T07:00:47;27.45;;;13.30;;
40717;SDS011;26405;51.850;-2.246;2023-01-29T07:03:13;27.13;;;13.27;;
40717;SDS011;26405;51.850;-2.246;2023-01-29T07:05:38;28.23;;;13.50;;
40717;SDS011;26405;51.850;-2.246;2023-01-29T07:08:04;29.27;;;13.23;;
40717;SDS011;26405;51.850;-2.246;2023-01-29T07:10:29;26.20;;;13.10;;
40717;SDS011;26405;51.850;-2.246;2023-01-29T07:12:54;28.67;;;12.40;;
40717;SDS011;26405;51.850;-2.246;2023-01-29T07:15:20;27.13;;;12.52;;
40717;SDS011;26405;51.850;-2.246;2023-01-29T07:17:55;23.75;;;12.10;;
40717;SDS011;26405;51.850;-2.246;2023-01-29T07:20:21;24.95;;;11.52;;
40717;SDS011;26405;51.850;-2.246;2023-01-29T07:22:46;22.80;;;11.05;;
40717;SDS011;26405;51.850;-2.246;2023-01-29T07:25:11;22.83;;;11.10;;
40717;SDS011;26405;51.850;-2.246;2023-01-29T07:27:36;23.45;;;11.82;;
40717;SDS011;26405;51.850;-2.246;2023-01-29T07:30:02;26.50;;;11.27;;
40717;SDS011;26405;51.850;-2.246;2023-01-29T07:32:27;23.15;;;10.13;;
40717;SDS011;26405;51.850;-2.246;2023-01-29T07:34:52;24.27;;;11.15;;
40717;SDS011;26405;51.850;-2.246;2023-01-29T07:37:18;26.30;;;12.45;;
40717;SDS011;26405;51.850;-2.246;2023-01-29T07:39:43;27.15;;;11.50;;
40717;SDS011;26405;51.850;-2.246;2023-01-29T07:42:08;25.92;;;11.05;;
40717;SDS011;26405;51.850;-2.246;2023-01-29T07:44:33;24.67;;;11.30;;
40717;SDS011;26405;51.850;-2.246;2023-01-29T07:46:59;23.73;;;10.40;;
40717;SDS011;26405;51.850;-2.246;2023-01-29T07:49:24;31.27;;;13.57;;
40717;SDS011;26405;51.850;-2.246;2023-01-29T07:51:49;28.20;;;12.43;;
40717;SDS011;26405;51.850;-2.246;2023-01-29T07:54:14;27.00;;;11.63;;
40717;SDS011;26405;51.850;-2.246;2023-01-29T07:56:40;25.25;;;12.23;;
40717;SDS011;26405;51.850;-2.246;2023-01-29T07:59:05;27.98;;;11.90;;
40717;SDS011;26405;51.850;-2.246;2023-01-29T08:01:30;28.02;;;12.07;;
40717;SDS011;26405;51.850;-2.246;2023-01-29T08:03:55;25.48;;;10.80;;
40717;SDS011;26405;51.850;-2.246;2023-01-29T08:06:21;23.85;;;9.65;;
40717;SDS011;26405;51.850;-2.246;2023-01-29T08:08:46;22.70;;;8.93;;
40717;SDS011;26405;51.850;-2.246;2023-01-29T08:11:11;21.77;;;9.75;;
40717;SDS011;26405;51.850;-2.246;2023-01-29T08:13:37;21.40;;;9.10;;
40717;SDS011;26405;51.850;-2.246;2023-01-29T08:16:02;22.55;;;7.78;;
40717;SDS011;26405;51.850;-2.246;2023-01-29T08:18:28;25.30;;;7.05;;
40717;SDS011;26405;51.850;-2.246;2023-01-29T08:20:57;19.85;;;6.80;;
40717;SDS011;26405;51.850;-2.246;2023-01-29T08:23:23;14.52;;;6.18;;
40717;SDS011;26405;51.850;-2.246;2023-01-29T08:25:48;16.33;;;6.10;;
40717;SDS011;26405;51.850;-2.246;2023-01-29T08:28:13;15.35;;;6.40;;
40717;SDS011;26405;51.850;-2.246;2023-01-29T08:30:39;12.13;;;5.50;;
40717;SDS011;26405;51.850;-2.246;2023-01-29T08:33:04;14.38;;;6.32;;
40717;SDS011;26405;51.850;-2.246;2023-01-29T08:35:30;13.98;;;6.18;;
40717;SDS011;26405;51.850;-2.246;2023-01-29T08:37:56;13.43;;;6.13;;
40717;SDS011;26405;51.850;-2.246;2023-01-29T08:40:23;17.73;;;6.70;;
40717;SDS011;26405;51.850;-2.246;2023-01-29T08:42:48;12.95;;;6.15;;
40717;SDS011;26405;51.850;-2.246;2023-01-29T08:45:14;13.88;;;5.97;;
40717;SDS011;26405;51.850;-2.246;2023-01-29T08:47:43;12.00;;;5.63;;
40717;SDS011;26405;51.850;-2.246;2023-01-29T08:50:09;12.25;;;6.22;;
40717;SDS011;26405;51.850;-2.246;2023-01-29T08:52:34;16.92;;;6.72;;
40717;SDS011;26405;51.850;-2.246;2023-01-29T08:54:59;14.73;;;6.15;;
40717;SDS011;26405;51.850;-2.246;2023-01-29T08:57:25;17.65;;;6.43;;
40717;SDS011;26405;51.850;-2.246;2023-01-29T08:59:50;13.48;;;6.07;;
40717;SDS011;26405;51.850;-2.246;2023-01-29T09:02:15;15.00;;;6.80;;
40717;SDS011;26405;51.850;-2.246;2023-01-29T09:04:40;14.80;;;6.40;;
40717;SDS011;26405;51.850;-2.246;2023-01-29T09:07:06;17.15;;;5.90;;
40717;SDS011;26405;51.850;-2.246;2023-01-29T09:09:31;13.00;;;5.63;;
40717;SDS011;26405;51.850;-2.246;2023-01-29T09:11:56;14.98;;;6.35;;
40717;SDS011;26405;51.850;-2.246;2023-01-29T09:14:21;11.73;;;5.38;;
40717;SDS011;26405;51.850;-2.246;2023-01-29T09:16:47;14.23;;;6.28;;
40717;SDS011;26405;51.850;-2.246;2023-01-29T09:19:12;12.38;;;5.65;;
40717;SDS011;26405;51.850;-2.246;2023-01-29T09:21:37;14.30;;;5.78;;
40717;SDS011;26405;51.850;-2.246;2023-01-29T09:24:02;11.55;;;5.25;;
40717;SDS011;26405;51.850;-2.246;2023-01-29T09:26:28;13.90;;;5.35;;
40717;SDS011;26405;51.850;-2.246;2023-01-29T09:28:53;13.38;;;5.10;;
40717;SDS011;26405;51.850;-2.246;2023-01-29T09:31:19;12.65;;;5.50;;
40717;SDS011;26405;51.850;-2.246;2023-01-29T09:33:44;13.10;;;5.00;;
40717;SDS011;26405;51.850;-2.246;2023-01-29T09:36:09;9.82;;;4.75;;
40717;SDS011;26405;51.850;-2.246;2023-01-29T09:38:35;11.07;;;4.90;;
40717;SDS011;26405;51.850;-2.246;2023-01-29T09:43:50;9.45;;;4.68;;
40717;SDS011;26405;51.850;-2.246;2023-01-29T09:49:09;11.07;;;4.72;;
40717;SDS011;26405;51.850;-2.246;2023-01-29T09:51:39;8.93;;;4.03;;
40717;SDS011;26405;51.850;-2.246;2023-01-29T09:56:36;10.93;;;4.75;;
40717;SDS011;26405;51.850;-2.246;2023-01-29T09:59:02;10.20;;;4.55;;
40717;SDS011;26405;51.850;-2.246;2023-01-29T10:06:26;9.03;;;4.40;;
40717;SDS011;26405;51.850;-2.246;2023-01-29T10:08:59;8.05;;;4.20;;
40717;SDS011;26405;51.850;-2.246;2023-01-29T10:12:13;8.00;;;4.13;;
40717;SDS011;26405;51.850;-2.246;2023-01-29T10:14:24;10.73;;;4.05;;
40717;SDS011;26405;51.850;-2.246;2023-01-29T10:24:59;7.93;;;3.42;;
40717;SDS011;26405;51.850;-2.246;2023-01-29T10:27:22;6.53;;;3.30;;
40717;SDS011;26405;51.850;-2.246;2023-01-29T10:29:49;7.28;;;3.15;;
40717;SDS011;26405;51.850;-2.246;2023-01-29T10:32:20;5.45;;;3.00;;
40717;SDS011;26405;51.850;-2.246;2023-01-29T10:34:56;8.00;;;3.22;;
40717;SDS011;26405;51.850;-2.246;2023-01-29T10:37:25;4.65;;;3.10;;
40717;SDS011;26405;51.850;-2.246;2023-01-29T10:39:52;5.60;;;3.10;;
40717;SDS011;26405;51.850;-2.246;2023-01-29T10:55:03;6.43;;;3.10;;
40717;SDS011;26405;51.850;-2.246;2023-01-29T10:57:43;9.82;;;4.00;;
40717;SDS011;26405;51.850;-2.246;2023-01-29T11:02:46;7.90;;;3.33;;
40717;SDS011;26405;51.850;-2.246;2023-01-29T11:07:43;8.93;;;3.88;;
40717;SDS011;26405;51.850;-2.246;2023-01-29T11:10:10;10.27;;;3.42;;
40717;SDS011;26405;51.850;-2.246;2023-01-29T11:12:38;7.82;;;3.55;;
40717;SDS011;26405;51.850;-2.246;2023-01-29T11:15:15;6.68;;;3.22;;
40717;SDS011;26405;51.850;-2.246;2023-01-29T11:17:59;6.55;;;3.28;;
40717;SDS011;26405;51.850;-2.246;2023-01-29T11:20:25;8.55;;;3.20;;
40717;SDS011;26405;51.850;-2.246;2023-01-29T11:22:54;4.07;;;2.80;;
40717;SDS011;26405;51.850;-2.246;2023-01-29T11:25:19;5.05;;;3.00;;
40717;SDS011;26405;51.850;-2.246;2023-01-29T11:30:32;4.57;;;2.97;;
40717;SDS011;26405;51.850;-2.246;2023-01-29T11:33:06;5.65;;;3.33;;
40717;SDS011;26405;51.850;-2.246;2023-01-29T11:35:32;7.65;;;3.90;;
40717;SDS011;26405;51.850;-2.246;2023-01-29T11:38:12;6.93;;;3.80;;
40717;SDS011;26405;51.850;-2.246;2023-01-29T11:40:41;6.00;;;3.55;;
40717;SDS011;26405;51.850;-2.246;2023-01-29T11:43:20;7.85;;;3.92;;
40717;SDS011;26405;51.850;-2.246;2023-01-29T11:45:46;8.93;;;4.57;;
40717;SDS011;26405;51.850;-2.246;2023-01-29T11:48:15;8.73;;;3.70;;
40717;SDS011;26405;51.850;-2.246;2023-01-29T11:50:42;7.03;;;3.90;;
40717;SDS011;26405;51.850;-2.246;2023-01-29T11:53:18;7.13;;;3.40;;
40717;SDS011;26405;51.850;-2.246;2023-01-29T11:55:47;4.10;;;2.90;;
40717;SDS011;26405;51.850;-2.246;2023-01-29T11:58:15;3.88;;;2.78;;
40717;SDS011;26405;51.850;-2.246;2023-01-29T12:00:43;5.35;;;2.78;;
40717;SDS011;26405;51.850;-2.246;2023-01-29T12:05:36;3.22;;;2.38;;
40717;SDS011;26405;51.850;-2.246;2023-01-29T12:08:02;3.17;;;2.10;;
40717;SDS011;26405;51.850;-2.246;2023-01-29T12:10:32;2.30;;;1.90;;
40717;SDS011;26405;51.850;-2.246;2023-01-29T12:20:43;1.80;;;1.70;;
40717;SDS011;26405;51.850;-2.246;2023-01-29T12:30:49;4.47;;;2.35;;
40717;SDS011;26405;51.850;-2.246;2023-01-29T12:33:32;4.97;;;2.55;;
40717;SDS011;26405;51.850;-2.246;2023-01-29T12:36:16;4.90;;;2.65;;
40717;SDS011;26405;51.850;-2.246;2023-01-29T12:38:43;4.85;;;2.40;;
40717;SDS011;26405;51.850;-2.246;2023-01-29T12:41:15;3.38;;;2.00;;
40717;SDS011;26405;51.850;-2.246;2023-01-29T12:46:23;2.83;;;2.25;;
40717;SDS011;26405;51.850;-2.246;2023-01-29T12:48:50;3.47;;;2.25;;
40717;SDS011;26405;51.850;-2.246;2023-01-29T12:51:17;3.08;;;2.38;;
40717;SDS011;26405;51.850;-2.246;2023-01-29T12:54:04;3.00;;;2.20;;
40717;SDS011;26405;51.850;-2.246;2023-01-29T12:56:41;3.22;;;2.30;;
40717;SDS011;26405;51.850;-2.246;2023-01-29T12:59:16;4.38;;;2.58;;
40717;SDS011;26405;51.850;-2.246;2023-01-29T13:02:09;3.70;;;2.50;;
40717;SDS011;26405;51.850;-2.246;2023-01-29T13:04:36;4.57;;;2.50;;
40717;SDS011;26405;51.850;-2.246;2023-01-29T13:07:22;5.60;;;2.60;;
40717;SDS011;26405;51.850;-2.246;2023-01-29T13:09:49;6.22;;;3.00;;
40717;SDS011;26405;51.850;-2.246;2023-01-29T13:12:18;6.40;;;2.97;;
40717;SDS011;26405;51.850;-2.246;2023-01-29T13:14:48;5.97;;;3.30;;
40717;SDS011;26405;51.850;-2.246;2023-01-29T13:17:32;5.43;;;3.40;;
40717;SDS011;26405;51.850;-2.246;2023-01-29T13:20:04;6.13;;;2.80;;
40717;SDS011;26405;51.850;-2.246;2023-01-29T13:22:34;5.32;;;3.03;;
40717;SDS011;26405;51.850;-2.246;2023-01-29T13:25:01;7.90;;;2.90;;
40717;SDS011;26405;51.850;-2.246;2023-01-29T13:27:27;5.47;;;2.88;;
40717;SDS011;26405;51.850;-2.246;2023-01-29T13:29:53;5.17;;;2.80;;
40717;SDS011;26405;51.850;-2.246;2023-01-29T13:32:29;4.60;;;2.85;;
40717;SDS011;26405;51.850;-2.246;2023-01-29T13:34:56;5.07;;;2.50;;
40717;SDS011;26405;51.850;-2.246;2023-01-29T13:39:48;6.53;;;3.03;;
40717;SDS011;26405;51.850;-2.246;2023-01-29T13:44:39;3.67;;;2.47;;
40717;SDS011;26405;51.850;-2.246;2023-01-29T13:47:08;6.22;;;2.90;;
40717;SDS011;26405;51.850;-2.246;2023-01-29T13:49:39;4.93;;;3.10;;
40717;SDS011;26405;51.850;-2.246;2023-01-29T13:54:50;6.43;;;3.00;;
40717;SDS011;26405;51.850;-2.246;2023-01-29T13:59:59;4.63;;;2.80;;
40717;SDS011;26405;51.850;-2.246;2023-01-29T14:02:28;4.47;;;2.72;;
40717;SDS011;26405;51.850;-2.246;2023-01-29T14:12:38;5.40;;;3.20;;
40717;SDS011;26405;51.850;-2.246;2023-01-29T14:15:13;6.88;;;2.90;;
40717;SDS011;26405;51.850;-2.246;2023-01-29T14:17:51;5.20;;;2.72;;
40717;SDS011;26405;51.850;-2.246;2023-01-29T14:20:18;3.95;;;2.35;;
40717;SDS011;26405;51.850;-2.246;2023-01-29T14:22:50;4.55;;;2.58;;
40717;SDS011;26405;51.850;-2.246;2023-01-29T14:25:26;2.55;;;1.80;;
40717;SDS011;26405;51.850;-2.246;2023-01-29T14:27:52;2.88;;;1.80;;
40717;SDS011;26405;51.850;-2.246;2023-01-29T14:30:17;2.70;;;2.20;;
40717;SDS011;26405;51.850;-2.246;2023-01-29T14:32:47;2.75;;;2.10;;
40717;SDS011;26405;51.850;-2.246;2023-01-29T14:37:43;3.28;;;2.20;;
40717;SDS011;26405;51.850;-2.246;2023-01-29T14:42:56;2.37;;;2.13;;
40717;SDS011;26405;51.850;-2.246;2023-01-29T14:45:27;2.20;;;2.00;;
40717;SDS011;26405;51.850;-2.246;2023-01-29T14:47:54;4.80;;;1.92;;
40717;SDS011;26405;51.850;-2.246;2023-01-29T14:53:42;2.92;;;1.70;;
40717;SDS011;26405;51.850;-2.246;2023-01-29T14:55:43;2.00;;;1.80;;
40717;SDS011;26405;51.850;-2.246;2023-01-29T14:58:11;1.75;;;1.65;;
40717;SDS011;26405;51.850;-2.246;2023-01-29T15:00:38;2.58;;;1.90;;
40717;SDS011;26405;51.850;-2.246;2023-01-29T15:03:11;2.17;;;1.90;;
40717;SDS011;26405;51.850;-2.246;2023-01-29T15:05:37;5.45;;;2.10;;
40717;SDS011;26405;51.850;-2.246;2023-01-29T15:10:51;4.35;;;2.13;;
40717;SDS011;26405;51.850;-2.246;2023-01-29T15:13:41;5.88;;;2.72;;
40717;SDS011;26405;51.850;-2.246;2023-01-29T15:16:08;3.60;;;2.20;;
40717;SDS011;26405;51.850;-2.246;2023-01-29T15:18:41;5.82;;;2.60;;
40717;SDS011;26405;51.850;-2.246;2023-01-29T15:21:11;5.07;;;2.50;;
40717;SDS011;26405;51.850;-2.246;2023-01-29T15:23:37;5.45;;;2.35;;
40717;SDS011;26405;51.850;-2.246;2023-01-29T15:26:04;3.97;;;2.28;;
40717;SDS011;26405;51.850;-2.246;2023-01-29T15:28:30;6.57;;;2.90;;
40717;SDS011;26405;51.850;-2.246;2023-01-29T15:30:56;5.10;;;2.80;;
40717;SDS011;26405;51.850;-2.246;2023-01-29T15:33:23;7.38;;;2.90;;
40717;SDS011;26405;51.850;-2.246;2023-01-29T15:35:49;4.20;;;2.17;;
40717;SDS011;26405;51.850;-2.246;2023-01-29T15:38:20;3.28;;;2.30;;
40717;SDS011;26405;51.850;-2.246;2023-01-29T15:41:19;2.57;;;1.80;;
40717;SDS011;26405;51.850;-2.246;2023-01-29T15:43:41;2.78;;;1.70;;
40717;SDS011;26405;51.850;-2.246;2023-01-29T15:46:11;2.13;;;1.80;;
40717;SDS011;26405;51.850;-2.246;2023-01-29T15:48:40;5.45;;;2.20;;
40717;SDS011;26405;51.850;-2.246;2023-01-29T15:53:36;9.87;;;2.67;;
40717;SDS011;26405;51.850;-2.246;2023-01-29T15:56:01;4.70;;;2.80;;
40717;SDS011;26405;51.850;-2.246;2023-01-29T15:58:31;6.40;;;2.95;;
40717;SDS011;26405;51.850;-2.246;2023-01-29T16:00:57;6.20;;;3.03;;
40717;SDS011;26405;51.850;-2.246;2023-01-29T16:03:23;4.07;;;2.00;;
40717;SDS011;26405;51.850;-2.246;2023-01-29T16:05:49;4.57;;;2.22;;
40717;SDS011;26405;51.850;-2.246;2023-01-29T16:08:15;4.50;;;2.65;;
40717;SDS011;26405;51.850;-2.246;2023-01-29T16:10:41;9.13;;;3.78;;
40717;SDS011;26405;51.850;-2.246;2023-01-29T16:13:15;10.05;;;4.78;;
40717;SDS011;26405;51.850;-2.246;2023-01-29T16:15:52;10.07;;;4.50;;
40717;SDS011;26405;51.850;-2.246;2023-01-29T16:18:19;11.82;;;4.35;;
40717;SDS011;26405;51.850;-2.246;2023-01-29T16:20:45;22.55;;;10.20;;
40717;SDS011;26405;51.850;-2.246;2023-01-29T16:23:25;12.05;;;4.80;;
40717;SDS011;26405;51.850;-2.246;2023-01-29T16:25:52;6.80;;;3.30;;
40717;SDS011;26405;51.850;-2.246;2023-01-29T16:28:17;11.75;;;4.90;;
40717;SDS011;26405;51.850;-2.246;2023-01-29T16:30:43;11.15;;;4.13;;
40717;SDS011;26405;51.850;-2.246;2023-01-29T16:33:14;7.30;;;3.33;;
40717;SDS011;26405;51.850;-2.246;2023-01-29T16:35:41;10.98;;;4.40;;
40717;SDS011;26405;51.850;-2.246;2023-01-29T16:38:17;11.48;;;4.53;;
40717;SDS011;26405;51.850;-2.246;2023-01-29T16:41:03;9.15;;;3.60;;
40717;SDS011;26405;51.850;-2.246;2023-01-29T16:46:03;10.35;;;3.83;;
40717;SDS011;26405;51.850;-2.246;2023-01-29T16:48:33;9.57;;;3.70;;
40717;SDS011;26405;51.850;-2.246;2023-01-29T16:51:05;5.82;;;2.97;;
40717;SDS011;26405;51.850;-2.246;2023-01-29T16:53:36;5.07;;;3.05;;
40717;SDS011;26405;51.850;-2.246;2023-01-29T16:56:02;8.10;;;3.63;;
40717;SDS011;26405;51.850;-2.246;2023-01-29T16:58:29;11.15;;;4.45;;
40717;SDS011;26405;51.850;-2.246;2023-01-29T17:01:05;16.23;;;6.38;;
40717;SDS011;26405;51.850;-2.246;2023-01-29T17:03:32;17.27;;;6.45;;
40717;SDS011;26405;51.850;-2.246;2023-01-29T17:05:58;12.85;;;4.82;;
40717;SDS011;26405;51.850;-2.246;2023-01-29T17:08:24;11.07;;;4.55;;
40717;SDS011;26405;51.850;-2.246;2023-01-29T17:10:50;25.42;;;10.45;;
40717;SDS011;26405;51.850;-2.246;2023-01-29T17:13:17;20.42;;;8.02;;
40717;SDS011;26405;51.850;-2.246;2023-01-29T17:15:44;19.35;;;7.43;;